sensor_id;sensor_type;location;lat;lon;timestamp;temperature;humidity
42989;DHT22;28622;43.716;20.668;2023-02-18T00:02:18;3.10;99.90
42989;DHT22;28622;43.716;20.668;2023-02-18T00:04:43;3.10;99.90
42989;DHT22;28622;43.716;20.668;2023-02-18T00:07:09;3.00;99.90
42989;DHT22;28622;43.716;20.668;2023-02-18T00:09:37;2.90;99.90
42989;DHT22;28622;43.716;20.668;2023-02-18T00:12:03;2.80;99.90
42989;DHT22;28622;43.716;20.668;2023-02-18T00:14:29;2.70;99.90
42989;DHT22;28622;43.716;20.668;2023-02-18T00:16:54;2.50;99.90
42989;DHT22;28622;43.716;20.668;2023-02-18T00:19:20;2.40;99.90
42989;DHT22;28622;43.716;20.668;2023-02-18T00:21:46;2.50;99.90
42989;DHT22;28622;43.716;20.668;2023-02-18T00:24:14;2.50;99.90
42989;DHT22;28622;43.716;20.668;2023-02-18T00:26:40;2.50;99.90
42989;DHT22;28622;43.716;20.668;2023-02-18T00:29:06;2.50;99.90
42989;DHT22;28622;43.716;20.668;2023-02-18T00:31:35;2.50;99.90
42989;DHT22;28622;43.716;20.668;2023-02-18T00:34:02;2.50;99.90
42989;DHT22;28622;43.716;20.668;2023-02-18T00:36:29;2.50;99.90
42989;DHT22;28622;43.716;20.668;2023-02-18T00:38:57;2.50;99.90
42989;DHT22;28622;43.716;20.668;2023-02-18T00:41:24;2.50;99.90
42989;DHT22;28622;43.716;20.668;2023-02-18T00:43:50;2.50;99.90
42989;DHT22;28622;43.716;20.668;2023-02-18T00:46:16;2.50;99.90
42989;DHT22;28622;43.716;20.668;2023-02-18T00:48:42;2.50;99.90
42989;DHT22;28622;43.716;20.668;2023-02-18T00:51:08;2.50;99.90
42989;DHT22;28622;43.716;20.668;2023-02-18T00:53:35;2.50;99.90
42989;DHT22;28622;43.716;20.668;2023-02-18T00:56:01;2.50;99.90
42989;DHT22;28622;43.716;20.668;2023-02-18T00:58:27;2.40;99.90
42989;DHT22;28622;43.716;20.668;2023-02-18T01:00:53;2.50;99.90
42989;DHT22;28622;43.716;20.668;2023-02-18T01:03:19;2.50;99.90
42989;DHT22;28622;43.716;20.668;2023-02-18T01:05:44;2.60;99.90
42989;DHT22;28622;43.716;20.668;2023-02-18T01:08:10;2.40;99.90
42989;DHT22;28622;43.716;20.668;2023-02-18T01:10:40;2.50;99.90
42989;DHT22;28622;43.716;20.668;2023-02-18T01:13:07;2.40;99.90
42989;DHT22;28622;43.716;20.668;2023-02-18T01:15:33;2.40;99.90
42989;DHT22;28622;43.716;20.668;2023-02-18T01:17:59;2.40;99.90
42989;DHT22;28622;43.716;20.668;2023-02-18T01:20:25;2.30;99.90
42989;DHT22;28622;43.716;20.668;2023-02-18T01:22:51;2.40;99.90
42989;DHT22;28622;43.716;20.668;2023-02-18T01:25:17;2.40;99.90
42989;DHT22;28622;43.716;20.668;2023-02-18T01:27:43;2.50;99.90
42989;DHT22;28622;43.716;20.668;2023-02-18T01:30:13;2.40;99.90
42989;DHT22;28622;43.716;20.668;2023-02-18T01:32:39;2.40;99.90
42989;DHT22;28622;43.716;20.668;2023-02-18T01:35:06;2.40;99.90
42989;DHT22;28622;43.716;20.668;2023-02-18T01:37:32;2.20;99.90
42989;DHT22;28622;43.716;20.668;2023-02-18T01:39:58;2.10;99.90
42989;DHT22;28622;43.716;20.668;2023-02-18T01:42:26;2.10;99.90
42989;DHT22;28622;43.716;20.668;2023-02-18T01:44:53;2.10;99.90
42989;DHT22;28622;43.716;20.668;2023-02-18T01:47:19;2.10;99.90
42989;DHT22;28622;43.716;20.668;2023-02-18T01:49:48;2.10;99.90
42989;DHT22;28622;43.716;20.668;2023-02-18T01:52:20;2.10;99.90
42989;DHT22;28622;43.716;20.668;2023-02-18T01:54:51;2.00;99.90
42989;DHT22;28622;43.716;20.668;2023-02-18T01:57:30;1.80;99.90
42989;DHT22;28622;43.716;20.668;2023-02-18T01:59:59;2.00;99.90
42989;DHT22;28622;43.716;20.668;2023-02-18T02:02:28;2.00;99.90
42989;DHT22;28622;43.716;20.668;2023-02-18T02:04:54;2.00;99.90
42989;DHT22;28622;43.716;20.668;2023-02-18T02:07:22;2.10;99.90
42989;DHT22;28622;43.716;20.668;2023-02-18T02:09:49;2.10;99.90
42989;DHT22;28622;43.716;20.668;2023-02-18T02:47:44;2.10;99.90
42989;DHT22;28622;43.716;20.668;2023-02-18T02:50:43;2.10;99.90
42989;DHT22;28622;43.716;20.668;2023-02-18T02:53:22;2.00;99.90
42989;DHT22;28622;43.716;20.668;2023-02-18T02:55:49;2.00;99.90
42989;DHT22;28622;43.716;20.668;2023-02-18T02:58:16;2.10;99.90
42989;DHT22;28622;43.716;20.668;2023-02-18T03:00:52;2.20;99.90
42989;DHT22;28622;43.716;20.668;2023-02-18T03:03:31;2.30;99.90
42989;DHT22;28622;43.716;20.668;2023-02-18T03:06:26;2.30;99.90
42989;DHT22;28622;43.716;20.668;2023-02-18T03:12:06;2.30;99.90
42989;DHT22;28622;43.716;20.668;2023-02-18T03:15:00;2.40;99.90
42989;DHT22;28622;43.716;20.668;2023-02-18T03:17:39;2.40;99.90
42989;DHT22;28622;43.716;20.668;2023-02-18T03:20:35;2.40;99.90
42989;DHT22;28622;43.716;20.668;2023-02-18T03:23:06;2.40;99.90
42989;DHT22;28622;43.716;20.668;2023-02-18T03:25:34;2.40;99.90
42989;DHT22;28622;43.716;20.668;2023-02-18T03:28:04;2.30;99.90
42989;DHT22;28622;43.716;20.668;2023-02-18T03:30:41;2.30;99.90
42989;DHT22;28622;43.716;20.668;2023-02-18T03:33:10;2.30;99.90
42989;DHT22;28622;43.716;20.668;2023-02-18T03:35:38;2.30;99.90
42989;DHT22;28622;43.716;20.668;2023-02-18T03:38:23;2.40;99.90
42989;DHT22;28622;43.716;20.668;2023-02-18T03:40:51;2.50;99.90
42989;DHT22;28622;43.716;20.668;2023-02-18T03:43:17;2.60;99.90
42989;DHT22;28622;43.716;20.668;2023-02-18T03:45:43;2.70;99.90
42989;DHT22;28622;43.716;20.668;2023-02-18T03:48:09;2.80;99.90
42989;DHT22;28622;43.716;20.668;2023-02-18T03:50:34;2.90;99.90
42989;DHT22;28622;43.716;20.668;2023-02-18T03:53:00;3.10;99.90
42989;DHT22;28622;43.716;20.668;2023-02-18T03:55:26;3.40;99.90
42989;DHT22;28622;43.716;20.668;2023-02-18T03:57:52;3.70;99.90
42989;DHT22;28622;43.716;20.668;2023-02-18T04:00:18;3.90;99.90
42989;DHT22;28622;43.716;20.668;2023-02-18T04:02:44;4.10;99.90
42989;DHT22;28622;43.716;20.668;2023-02-18T04:05:11;4.20;99.90
42989;DHT22;28622;43.716;20.668;2023-02-18T04:07:37;4.40;99.90
42989;DHT22;28622;43.716;20.668;2023-02-18T04:10:04;4.50;99.90
42989;DHT22;28622;43.716;20.668;2023-02-18T04:12:30;4.60;99.90
42989;DHT22;28622;43.716;20.668;2023-02-18T04:14:56;4.60;99.90
42989;DHT22;28622;43.716;20.668;2023-02-18T04:17:22;4.70;99.90
42989;DHT22;28622;43.716;20.668;2023-02-18T04:19:47;4.70;99.90
42989;DHT22;28622;43.716;20.668;2023-02-18T04:22:13;4.70;99.90
42989;DHT22;28622;43.716;20.668;2023-02-18T04:24:39;4.60;99.90
42989;DHT22;28622;43.716;20.668;2023-02-18T04:27:05;4.60;99.90
42989;DHT22;28622;43.716;20.668;2023-02-18T04:29:30;4.60;99.90
42989;DHT22;28622;43.716;20.668;2023-02-18T04:31:56;4.60;99.90
42989;DHT22;28622;43.716;20.668;2023-02-18T04:34:22;4.50;99.90
42989;DHT22;28622;43.716;20.668;2023-02-18T04:36:48;4.50;99.90
42989;DHT22;28622;43.716;20.668;2023-02-18T04:39:13;4.40;99.90
42989;DHT22;28622;43.716;20.668;2023-02-18T04:41:39;4.40;99.90
42989;DHT22;28622;43.716;20.668;2023-02-18T04:44:05;4.40;99.90
42989;DHT22;28622;43.716;20.668;2023-02-18T04:46:31;4.40;99.90
42989;DHT22;28622;43.716;20.668;2023-02-18T04:48:57;4.40;99.90
42989;DHT22;28622;43.716;20.668;2023-02-18T04:51:22;4.40;99.90
42989;DHT22;28622;43.716;20.668;2023-02-18T04:53:48;4.30;99.90
42989;DHT22;28622;43.716;20.668;2023-02-18T04:56:14;4.20;99.90
42989;DHT22;28622;43.716;20.668;2023-02-18T04:58:40;4.30;99.90
42989;DHT22;28622;43.716;20.668;2023-02-18T05:01:06;4.30;99.90
42989;DHT22;28622;43.716;20.668;2023-02-18T05:03:32;4.30;99.90
42989;DHT22;28622;43.716;20.668;2023-02-18T05:05:58;4.30;99.90
42989;DHT22;28622;43.716;20.668;2023-02-18T05:08:24;4.30;99.90
42989;DHT22;28622;43.716;20.668;2023-02-18T05:10:49;4.30;99.90
42989;DHT22;28622;43.716;20.668;2023-02-18T05:13:15;4.20;99.90
42989;DHT22;28622;43.716;20.668;2023-02-18T05:15:41;4.20;99.90
42989;DHT22;28622;43.716;20.668;2023-02-18T05:18:07;4.10;99.90
42989;DHT22;28622;43.716;20.668;2023-02-18T05:20:33;4.10;99.90
42989;DHT22;28622;43.716;20.668;2023-02-18T05:22:59;4.00;99.90
42989;DHT22;28622;43.716;20.668;2023-02-18T05:25:25;4.00;99.90
42989;DHT22;28622;43.716;20.668;2023-02-18T05:27:51;4.00;99.90
42989;DHT22;28622;43.716;20.668;2023-02-18T05:30:16;4.00;99.90
42989;DHT22;28622;43.716;20.668;2023-02-18T05:32:42;4.00;99.90
42989;DHT22;28622;43.716;20.668;2023-02-18T05:35:08;3.90;99.90
42989;DHT22;28622;43.716;20.668;2023-02-18T05:37:34;4.00;99.90
42989;DHT22;28622;43.716;20.668;2023-02-18T05:40:00;4.00;99.90
42989;DHT22;28622;43.716;20.668;2023-02-18T05:42:26;4.00;99.90
42989;DHT22;28622;43.716;20.668;2023-02-18T05:44:52;3.90;99.90
42989;DHT22;28622;43.716;20.668;2023-02-18T05:47:17;4.00;99.90
42989;DHT22;28622;43.716;20.668;2023-02-18T05:49:43;4.00;99.90
42989;DHT22;28622;43.716;20.668;2023-02-18T05:52:10;4.00;99.90
42989;DHT22;28622;43.716;20.668;2023-02-18T05:54:37;4.00;99.90
42989;DHT22;28622;43.716;20.668;2023-02-18T05:57:04;4.10;99.90
42989;DHT22;28622;43.716;20.668;2023-02-18T05:59:30;4.10;99.90
42989;DHT22;28622;43.716;20.668;2023-02-18T06:01:56;4.20;99.90
42989;DHT22;28622;43.716;20.668;2023-02-18T06:04:21;4.40;99.90
42989;DHT22;28622;43.716;20.668;2023-02-18T06:06:47;4.50;99.90
42989;DHT22;28622;43.716;20.668;2023-02-18T06:09:13;4.60;99.90
42989;DHT22;28622;43.716;20.668;2023-02-18T06:11:39;4.70;99.90
42989;DHT22;28622;43.716;20.668;2023-02-18T06:14:05;4.80;99.90
42989;DHT22;28622;43.716;20.668;2023-02-18T06:16:31;4.80;99.90
42989;DHT22;28622;43.716;20.668;2023-02-18T06:18:57;4.80;99.90
42989;DHT22;28622;43.716;20.668;2023-02-18T06:21:23;4.90;99.90
42989;DHT22;28622;43.716;20.668;2023-02-18T06:23:49;4.90;99.90
42989;DHT22;28622;43.716;20.668;2023-02-18T06:26:15;5.00;99.90
42989;DHT22;28622;43.716;20.668;2023-02-18T06:28:40;5.00;99.90
42989;DHT22;28622;43.716;20.668;2023-02-18T06:31:06;5.00;99.90
42989;DHT22;28622;43.716;20.668;2023-02-18T06:33:32;5.10;99.90
42989;DHT22;28622;43.716;20.668;2023-02-18T06:36:00;5.10;99.90
42989;DHT22;28622;43.716;20.668;2023-02-18T06:38:26;5.20;99.90
42989;DHT22;28622;43.716;20.668;2023-02-18T06:40:52;5.20;99.90
42989;DHT22;28622;43.716;20.668;2023-02-18T06:43:19;5.40;99.90
42989;DHT22;28622;43.716;20.668;2023-02-18T06:45:46;5.40;99.90
42989;DHT22;28622;43.716;20.668;2023-02-18T06:48:12;5.60;99.90
42989;DHT22;28622;43.716;20.668;2023-02-18T06:50:40;5.60;99.90
42989;DHT22;28622;43.716;20.668;2023-02-18T06:53:06;5.80;99.90
42989;DHT22;28622;43.716;20.668;2023-02-18T06:55:31;5.80;99.90
42989;DHT22;28622;43.716;20.668;2023-02-18T06:57:57;5.70;99.90
42989;DHT22;28622;43.716;20.668;2023-02-18T07:00:23;5.80;99.90
42989;DHT22;28622;43.716;20.668;2023-02-18T07:02:49;5.80;99.90
42989;DHT22;28622;43.716;20.668;2023-02-18T07:05:15;6.00;99.90
42989;DHT22;28622;43.716;20.668;2023-02-18T07:07:40;6.20;99.90
42989;DHT22;28622;43.716;20.668;2023-02-18T07:10:07;6.40;99.90
42989;DHT22;28622;43.716;20.668;2023-02-18T07:12:33;6.70;99.90
42989;DHT22;28622;43.716;20.668;2023-02-18T07:14:58;6.90;99.90
42989;DHT22;28622;43.716;20.668;2023-02-18T07:17:24;7.10;99.90
42989;DHT22;28622;43.716;20.668;2023-02-18T07:19:50;7.30;99.90
42989;DHT22;28622;43.716;20.668;2023-02-18T07:22:16;7.50;99.90
42989;DHT22;28622;43.716;20.668;2023-02-18T07:24:42;7.50;99.90
42989;DHT22;28622;43.716;20.668;2023-02-18T07:27:08;7.50;99.90
42989;DHT22;28622;43.716;20.668;2023-02-18T07:29:34;7.60;99.90
42989;DHT22;28622;43.716;20.668;2023-02-18T07:32:01;7.80;99.90
42989;DHT22;28622;43.716;20.668;2023-02-18T07:34:26;7.80;99.90
42989;DHT22;28622;43.716;20.668;2023-02-18T07:36:52;8.00;99.90
42989;DHT22;28622;43.716;20.668;2023-02-18T07:39:18;8.10;99.90
42989;DHT22;28622;43.716;20.668;2023-02-18T07:41:46;8.20;99.90
42989;DHT22;28622;43.716;20.668;2023-02-18T07:44:13;8.40;99.90
42989;DHT22;28622;43.716;20.668;2023-02-18T07:46:41;8.40;99.90
42989;DHT22;28622;43.716;20.668;2023-02-18T07:49:08;8.50;99.90
42989;DHT22;28622;43.716;20.668;2023-02-18T07:51:33;8.60;99.90
42989;DHT22;28622;43.716;20.668;2023-02-18T07:53:59;8.90;99.90
42989;DHT22;28622;43.716;20.668;2023-02-18T07:56:25;9.10;99.90
42989;DHT22;28622;43.716;20.668;2023-02-18T07:58:51;9.10;99.90
42989;DHT22;28622;43.716;20.668;2023-02-18T08:01:16;9.20;99.90
42989;DHT22;28622;43.716;20.668;2023-02-18T08:03:42;9.30;99.90
42989;DHT22;28622;43.716;20.668;2023-02-18T08:06:24;9.40;99.90
42989;DHT22;28622;43.716;20.668;2023-02-18T08:08:50;9.50;99.90
42989;DHT22;28622;43.716;20.668;2023-02-18T08:11:16;9.50;99.90
42989;DHT22;28622;43.716;20.668;2023-02-18T08:13:42;9.50;99.90
42989;DHT22;28622;43.716;20.668;2023-02-18T08:16:09;9.60;99.90
42989;DHT22;28622;43.716;20.668;2023-02-18T08:18:35;9.60;99.50
42989;DHT22;28622;43.716;20.668;2023-02-18T08:21:00;9.70;99.90
42989;DHT22;28622;43.716;20.668;2023-02-18T08:23:26;9.70;98.60
42989;DHT22;28622;43.716;20.668;2023-02-18T08:25:52;9.80;98.00
42989;DHT22;28622;43.716;20.668;2023-02-18T08:28:20;9.90;98.40
42989;DHT22;28622;43.716;20.668;2023-02-18T08:30:48;10.00;98.10
42989;DHT22;28622;43.716;20.668;2023-02-18T08:33:15;10.10;98.50
42989;DHT22;28622;43.716;20.668;2023-02-18T08:35:41;10.10;97.40
42989;DHT22;28622;43.716;20.668;2023-02-18T08:38:07;10.20;97.70
42989;DHT22;28622;43.716;20.668;2023-02-18T08:40:33;10.20;97.70
42989;DHT22;28622;43.716;20.668;2023-02-18T08:42:58;10.30;97.50
42989;DHT22;28622;43.716;20.668;2023-02-18T08:45:24;10.50;97.60
42989;DHT22;28622;43.716;20.668;2023-02-18T08:47:50;10.70;97.50
42989;DHT22;28622;43.716;20.668;2023-02-18T08:50:16;10.90;96.90
42989;DHT22;28622;43.716;20.668;2023-02-18T08:52:43;11.40;97.30
42989;DHT22;28622;43.716;20.668;2023-02-18T08:55:09;11.80;95.80
42989;DHT22;28622;43.716;20.668;2023-02-18T08:57:34;12.40;95.70
42989;DHT22;28622;43.716;20.668;2023-02-18T09:00:00;13.00;93.70
42989;DHT22;28622;43.716;20.668;2023-02-18T09:02:26;13.20;91.90
42989;DHT22;28622;43.716;20.668;2023-02-18T09:04:53;13.10;92.30
42989;DHT22;28622;43.716;20.668;2023-02-18T09:07:19;13.10;91.30
42989;DHT22;28622;43.716;20.668;2023-02-18T09:09:45;13.30;91.00
42989;DHT22;28622;43.716;20.668;2023-02-18T09:12:10;13.30;90.10
42989;DHT22;28622;43.716;20.668;2023-02-18T09:14:36;13.50;90.30
42989;DHT22;28622;43.716;20.668;2023-02-18T09:17:02;13.90;90.20
42989;DHT22;28622;43.716;20.668;2023-02-18T09:19:27;14.50;87.90
42989;DHT22;28622;43.716;20.668;2023-02-18T09:21:53;14.70;87.60
42989;DHT22;28622;43.716;20.668;2023-02-18T09:24:21;14.80;84.60
42989;DHT22;28622;43.716;20.668;2023-02-18T09:26:49;14.70;84.10
42989;DHT22;28622;43.716;20.668;2023-02-18T09:29:15;14.80;82.50
42989;DHT22;28622;43.716;20.668;2023-02-18T09:31:41;15.20;82.70
42989;DHT22;28622;43.716;20.668;2023-02-18T09:34:07;15.70;83.50
42989;DHT22;28622;43.716;20.668;2023-02-18T09:36:33;15.80;81.90
42989;DHT22;28622;43.716;20.668;2023-02-18T09:38:59;16.30;80.80
42989;DHT22;28622;43.716;20.668;2023-02-18T09:41:44;16.60;79.60
42989;DHT22;28622;43.716;20.668;2023-02-18T09:44:24;17.00;78.10
42989;DHT22;28622;43.716;20.668;2023-02-18T09:46:54;16.90;75.50
42989;DHT22;28622;43.716;20.668;2023-02-18T09:49:29;16.80;77.30
42989;DHT22;28622;43.716;20.668;2023-02-18T09:52:11;17.30;76.40
42989;DHT22;28622;43.716;20.668;2023-02-18T09:54:37;17.50;73.40
42989;DHT22;28622;43.716;20.668;2023-02-18T09:57:04;17.90;73.10
42989;DHT22;28622;43.716;20.668;2023-02-18T09:59:32;17.90;74.60
42989;DHT22;28622;43.716;20.668;2023-02-18T10:01:58;17.80;73.80
42989;DHT22;28622;43.716;20.668;2023-02-18T10:04:44;18.20;72.50
42989;DHT22;28622;43.716;20.668;2023-02-18T10:07:29;18.50;71.00
42989;DHT22;28622;43.716;20.668;2023-02-18T10:09:58;19.00;70.50
42989;DHT22;28622;43.716;20.668;2023-02-18T10:12:26;19.30;68.00
42989;DHT22;28622;43.716;20.668;2023-02-18T10:14:57;19.40;67.20
42989;DHT22;28622;43.716;20.668;2023-02-18T10:17:26;19.70;66.70
42989;DHT22;28622;43.716;20.668;2023-02-18T10:19:55;19.60;65.30
42989;DHT22;28622;43.716;20.668;2023-02-18T10:22:23;19.80;66.20
42989;DHT22;28622;43.716;20.668;2023-02-18T10:24:56;19.90;65.20
42989;DHT22;28622;43.716;20.668;2023-02-18T10:29:53;20.80;61.60
42989;DHT22;28622;43.716;20.668;2023-02-18T10:32:21;20.80;62.40
42989;DHT22;28622;43.716;20.668;2023-02-18T10:34:52;20.60;61.80
42989;DHT22;28622;43.716;20.668;2023-02-18T10:40:26;20.50;61.90
42989;DHT22;28622;43.716;20.668;2023-02-18T10:43:19;20.60;62.80
42989;DHT22;28622;43.716;20.668;2023-02-18T10:51:21;20.40;62.50
42989;DHT22;28622;43.716;20.668;2023-02-18T10:53:50;20.30;63.90
42989;DHT22;28622;43.716;20.668;2023-02-18T10:59:22;19.50;64.40
42989;DHT22;28622;43.716;20.668;2023-02-18T11:02:14;19.00;64.50
42989;DHT22;28622;43.716;20.668;2023-02-18T11:04:43;18.70;65.80
42989;DHT22;28622;43.716;20.668;2023-02-18T11:07:21;18.60;67.50
42989;DHT22;28622;43.716;20.668;2023-02-18T11:10:17;18.50;66.80
42989;DHT22;28622;43.716;20.668;2023-02-18T11:12:49;18.60;69.30
42989;DHT22;28622;43.716;20.668;2023-02-18T11:15:17;18.70;67.10
42989;DHT22;28622;43.716;20.668;2023-02-18T11:17:45;18.80;68.20
42989;DHT22;28622;43.716;20.668;2023-02-18T11:23:13;19.30;67.40
42989;DHT22;28622;43.716;20.668;2023-02-18T11:25:41;19.10;67.90
42989;DHT22;28622;43.716;20.668;2023-02-18T11:30:45;19.80;67.10
42989;DHT22;28622;43.716;20.668;2023-02-18T11:35:53;19.90;64.40
42989;DHT22;28622;43.716;20.668;2023-02-18T11:39:05;19.70;64.80
42989;DHT22;28622;43.716;20.668;2023-02-18T11:41:42;19.50;65.10
42989;DHT22;28622;43.716;20.668;2023-02-18T11:47:04;19.90;64.30
42989;DHT22;28622;43.716;20.668;2023-02-18T11:49:32;20.00;66.00
42989;DHT22;28622;43.716;20.668;2023-02-18T11:52:22;19.70;64.30
42989;DHT22;28622;43.716;20.668;2023-02-18T11:55:16;20.00;66.70
42989;DHT22;28622;43.716;20.668;2023-02-18T11:57:56;20.10;64.70
42989;DHT22;28622;43.716;20.668;2023-02-18T12:00:43;20.20;64.10
42989;DHT22;28622;43.716;20.668;2023-02-18T12:06:02;20.10;63.60
42989;DHT22;28622;43.716;20.668;2023-02-18T12:08:35;20.10;64.60
42989;DHT22;28622;43.716;20.668;2023-02-18T12:11:06;20.20;64.60
42989;DHT22;28622;43.716;20.668;2023-02-18T12:13:52;20.30;63.90
42989;DHT22;28622;43.716;20.668;2023-02-18T12:27:19;21.60;61.40
42989;DHT22;28622;43.716;20.668;2023-02-18T12:46:20;22.00;60.50
42989;DHT22;28622;43.716;20.668;2023-02-18T12:51:32;22.30;60.70
42989;DHT22;28622;43.716;20.668;2023-02-18T13:00:11;22.30;60.80
42989;DHT22;28622;43.716;20.668;2023-02-18T13:05:42;22.60;60.30
42989;DHT22;28622;43.716;20.668;2023-02-18T13:13:39;22.30;59.00
42989;DHT22;28622;43.716;20.668;2023-02-18T13:16:09;22.20;59.10
42989;DHT22;28622;43.716;20.668;2023-02-18T13:18:43;22.20;59.80
42989;DHT22;28622;43.716;20.668;2023-02-18T13:21:14;22.00;57.70
42989;DHT22;28622;43.716;20.668;2023-02-18T13:23:56;21.80;57.80
42989;DHT22;28622;43.716;20.668;2023-02-18T13:26:23;21.60;59.20
42989;DHT22;28622;43.716;20.668;2023-02-18T13:32:05;21.30;58.50
42989;DHT22;28622;43.716;20.668;2023-02-18T13:34:36;21.00;59.10
42989;DHT22;28622;43.716;20.668;2023-02-18T13:37:34;20.80;59.30
42989;DHT22;28622;43.716;20.668;2023-02-18T13:40:03;20.50;60.00
42989;DHT22;28622;43.716;20.668;2023-02-18T13:42:32;20.30;60.40
42989;DHT22;28622;43.716;20.668;2023-02-18T13:47:43;20.30;60.50
42989;DHT22;28622;43.716;20.668;2023-02-18T13:52:57;20.20;59.90
42989;DHT22;28622;43.716;20.668;2023-02-18T14:01:01;19.70;61.00
42989;DHT22;28622;43.716;20.668;2023-02-18T14:06:14;19.40;62.40
42989;DHT22;28622;43.716;20.668;2023-02-18T14:08:41;19.40;64.50
42989;DHT22;28622;43.716;20.668;2023-02-18T14:19:41;19.20;63.30
42989;DHT22;28622;43.716;20.668;2023-02-18T14:22:47;19.10;63.00
42989;DHT22;28622;43.716;20.668;2023-02-18T14:27:42;18.90;65.50
42989;DHT22;28622;43.716;20.668;2023-02-18T14:32:47;18.70;65.20
42989;DHT22;28622;43.716;20.668;2023-02-18T14:36:09;18.70;64.80
42989;DHT22;28622;43.716;20.668;2023-02-18T14:39:01;18.60;64.20
42989;DHT22;28622;43.716;20.668;2023-02-18T14:51:51;18.40;67.30
42989;DHT22;28622;43.716;20.668;2023-02-18T14:54:19;18.30;66.10
42989;DHT22;28622;43.716;20.668;2023-02-18T14:57:02;18.20;66.60
42989;DHT22;28622;43.716;20.668;2023-02-18T14:59:34;18.10;66.60
42989;DHT22;28622;43.716;20.668;2023-02-18T15:02:00;18.00;66.50
42989;DHT22;28622;43.716;20.668;2023-02-18T15:04:26;17.90;66.70
42989;DHT22;28622;43.716;20.668;2023-02-18T15:07:03;17.80;67.70
42989;DHT22;28622;43.716;20.668;2023-02-18T15:09:30;17.80;69.90
42989;DHT22;28622;43.716;20.668;2023-02-18T15:14:30;17.70;70.60
42989;DHT22;28622;43.716;20.668;2023-02-18T15:16:57;17.60;71.60
42989;DHT22;28622;43.716;20.668;2023-02-18T15:19:31;17.50;70.30
42989;DHT22;28622;43.716;20.668;2023-02-18T15:21:59;17.40;70.50
42989;DHT22;28622;43.716;20.668;2023-02-18T15:24:36;17.30;70.80
42989;DHT22;28622;43.716;20.668;2023-02-18T15:27:12;17.10;71.30
42989;DHT22;28622;43.716;20.668;2023-02-18T15:29:39;17.00;73.00
42989;DHT22;28622;43.716;20.668;2023-02-18T15:32:16;16.90;73.60
42989;DHT22;28622;43.716;20.668;2023-02-18T15:34:43;16.80;73.90
42989;DHT22;28622;43.716;20.668;2023-02-18T15:37:12;16.80;72.80
42989;DHT22;28622;43.716;20.668;2023-02-18T15:39:39;16.70;73.10
42989;DHT22;28622;43.716;20.668;2023-02-18T15:42:16;16.60;72.70
42989;DHT22;28622;43.716;20.668;2023-02-18T15:44:49;16.50;73.50
42989;DHT22;28622;43.716;20.668;2023-02-18T15:47:17;16.40;74.10
42989;DHT22;28622;43.716;20.668;2023-02-18T15:49:50;16.30;74.60
42989;DHT22;28622;43.716;20.668;2023-02-18T15:52:23;16.20;74.70
42989;DHT22;28622;43.716;20.668;2023-02-18T15:54:49;16.00;75.50
42989;DHT22;28622;43.716;20.668;2023-02-18T15:57:15;16.00;75.90
42989;DHT22;28622;43.716;20.668;2023-02-18T15:59:54;15.90;76.40
42989;DHT22;28622;43.716;20.668;2023-02-18T16:02:23;15.80;76.60
42989;DHT22;28622;43.716;20.668;2023-02-18T16:04:56;15.70;77.10
42989;DHT22;28622;43.716;20.668;2023-02-18T16:07:28;15.60;77.80
42989;DHT22;28622;43.716;20.668;2023-02-18T16:12:34;15.20;79.50
42989;DHT22;28622;43.716;20.668;2023-02-18T16:15:02;15.10;79.50
42989;DHT22;28622;43.716;20.668;2023-02-18T16:17:29;14.90;80.30
42989;DHT22;28622;43.716;20.668;2023-02-18T16:22:46;14.60;82.30
42989;DHT22;28622;43.716;20.668;2023-02-18T16:25:22;14.40;82.90
42989;DHT22;28622;43.716;20.668;2023-02-18T16:27:53;14.30;84.20
42989;DHT22;28622;43.716;20.668;2023-02-18T16:30:26;14.10;84.10
42989;DHT22;28622;43.716;20.668;2023-02-18T16:32:53;13.90;86.00
42989;DHT22;28622;43.716;20.668;2023-02-18T16:35:21;13.80;86.20
42989;DHT22;28622;43.716;20.668;2023-02-18T16:37:47;13.60;86.80
42989;DHT22;28622;43.716;20.668;2023-02-18T16:40:29;13.50;87.30
42989;DHT22;28622;43.716;20.668;2023-02-18T16:42:58;13.40;88.10
42989;DHT22;28622;43.716;20.668;2023-02-18T16:45:51;13.30;88.50
42989;DHT22;28622;43.716;20.668;2023-02-18T16:48:27;13.20;89.80
42989;DHT22;28622;43.716;20.668;2023-02-18T16:50:54;13.10;89.20
42989;DHT22;28622;43.716;20.668;2023-02-18T16:53:20;13.00;89.30
42989;DHT22;28622;43.716;20.668;2023-02-18T16:55:48;12.90;90.00
42989;DHT22;28622;43.716;20.668;2023-02-18T16:58:15;12.80;89.70
42989;DHT22;28622;43.716;20.668;2023-02-18T17:00:42;12.80;90.00
42989;DHT22;28622;43.716;20.668;2023-02-18T17:03:09;12.70;89.50
42989;DHT22;28622;43.716;20.668;2023-02-18T17:05:35;12.70;89.30
42989;DHT22;28622;43.716;20.668;2023-02-18T17:08:20;12.50;89.60
42989;DHT22;28622;43.716;20.668;2023-02-18T17:10:52;12.50;89.30
42989;DHT22;28622;43.716;20.668;2023-02-18T17:13:22;12.50;87.60
42989;DHT22;28622;43.716;20.668;2023-02-18T17:15:51;12.50;87.70
42989;DHT22;28622;43.716;20.668;2023-02-18T17:18:17;12.50;88.70
42989;DHT22;28622;43.716;20.668;2023-02-18T17:20:43;12.40;88.50
42989;DHT22;28622;43.716;20.668;2023-02-18T17:23:13;12.30;89.70
42989;DHT22;28622;43.716;20.668;2023-02-18T17:25:40;12.00;90.30
42989;DHT22;28622;43.716;20.668;2023-02-18T17:28:06;11.90;90.60
42989;DHT22;28622;43.716;20.668;2023-02-18T17:30:37;11.80;90.90
42989;DHT22;28622;43.716;20.668;2023-02-18T17:33:04;11.80;90.80
42989;DHT22;28622;43.716;20.668;2023-02-18T17:35:31;11.70;91.30
42989;DHT22;28622;43.716;20.668;2023-02-18T17:37:57;11.60;91.10
42989;DHT22;28622;43.716;20.668;2023-02-18T17:40:26;11.60;91.40
42989;DHT22;28622;43.716;20.668;2023-02-18T17:42:54;11.50;91.60
42989;DHT22;28622;43.716;20.668;2023-02-18T17:45:32;11.50;91.50
42989;DHT22;28622;43.716;20.668;2023-02-18T17:48:00;11.40;91.90
42989;DHT22;28622;43.716;20.668;2023-02-18T17:50:27;11.30;92.20
42989;DHT22;28622;43.716;20.668;2023-02-18T17:52:53;11.20;92.10
42989;DHT22;28622;43.716;20.668;2023-02-18T17:55:31;11.10;92.60
42989;DHT22;28622;43.716;20.668;2023-02-18T17:57:57;11.10;92.20
42989;DHT22;28622;43.716;20.668;2023-02-18T18:02:51;11.00;92.40
42989;DHT22;28622;43.716;20.668;2023-02-18T18:05:37;10.90;92.50
42989;DHT22;28622;43.716;20.668;2023-02-18T18:08:05;10.80;93.10
42989;DHT22;28622;43.716;20.668;2023-02-18T18:10:34;10.70;93.20
42989;DHT22;28622;43.716;20.668;2023-02-18T18:13:06;10.60;93.30
42989;DHT22;28622;43.716;20.668;2023-02-18T18:15:36;10.50;93.50
42989;DHT22;28622;43.716;20.668;2023-02-18T18:18:02;10.40;94.00
42989;DHT22;28622;43.716;20.668;2023-02-18T18:20:31;10.50;93.90